createdAt,value
2022-08-03T00:00:26.355Z,75.38
2022-08-03T00:02:53.313Z,75.16
2022-08-03T00:05:20.185Z,75.62
2022-08-03T00:07:46.678Z,75.44
2022-08-03T00:10:16.030Z,75.97
2022-08-03T00:12:42.526Z,76.38
2022-08-03T00:15:15.141Z,76.26
2022-08-03T00:17:52.989Z,76.46
2022-08-03T00:20:21.928Z,76.28
2022-08-03T00:22:49.041Z,76.60
2022-08-03T00:25:15.801Z,76.43
2022-08-03T00:27:42.386Z,76.73
2022-08-03T00:30:09.352Z,76.72
2022-08-03T00:32:35.824Z,76.87
2022-08-03T00:35:09.834Z,76.34
2022-08-03T00:37:40.748Z,76.88
2022-08-03T00:40:18.379Z,76.48
2022-08-03T00:42:53.674Z,76.23
2022-08-03T00:45:24.948Z,76.31
2022-08-03T00:47:51.629Z,76.78
2022-08-03T00:50:19.706Z,76.71
2022-08-03T00:52:47.048Z,76.14
2022-08-03T00:55:13.874Z,77.14
2022-08-03T00:57:40.514Z,77.18
2022-08-03T01:00:08.839Z,77.76
2022-08-03T01:02:36.175Z,77.70
2022-08-03T01:05:02.654Z,78.12
2022-08-03T01:07:46.497Z,78.31
2022-08-03T01:10:36.552Z,78.42
2022-08-03T01:14:03.481Z,78.68
2022-08-03T01:16:10.038Z,78.81
2022-08-03T01:18:45.086Z,79.15
2022-08-03T01:21:18.135Z,79.07
2022-08-03T01:24:06.889Z,79.08
2022-08-03T01:27:03.383Z,79.08
2022-08-03T01:29:48.735Z,79.06
2022-08-03T01:33:02.388Z,79.37
2022-08-03T01:35:25.946Z,79.49
2022-08-03T01:37:57.772Z,79.48
2022-08-03T01:40:27.320Z,79.43
2022-08-03T01:42:57.510Z,79.93
2022-08-03T01:45:24.967Z,79.71
2022-08-03T01:47:52.920Z,79.48
2022-08-03T01:50:22.669Z,79.43
2022-08-03T01:52:50.063Z,79.83
2022-08-03T01:55:19.840Z,80.03
2022-08-03T01:58:05.233Z,79.88
2022-08-03T02:00:36.635Z,79.83
2022-08-03T02:03:06.346Z,79.94
2022-08-03T02:05:33.785Z,80.28
2022-08-03T02:08:03.499Z,80.48
2022-08-03T02:10:35.223Z,80.55
2022-08-03T02:13:04.175Z,80.55
2022-08-03T02:15:32.723Z,80.83
2022-08-03T02:18:01.876Z,80.83
2022-08-03T02:20:29.746Z,81.50
2022-08-03T02:22:56.217Z,81.36
2022-08-03T02:25:23.626Z,81.72
2022-08-03T02:27:58.503Z,81.79
2022-08-03T02:30:33.439Z,81.72
2022-08-03T02:33:01.620Z,81.79
2022-08-03T02:35:29.820Z,81.85
2022-08-03T02:38:01.032Z,81.88
2022-08-03T02:40:31.019Z,81.53
2022-08-03T02:43:05.371Z,81.58
2022-08-03T02:45:36.053Z,81.66
2022-08-03T02:48:05.377Z,81.56
2022-08-03T02:50:33.952Z,81.60
2022-08-03T02:53:03.004Z,81.15
2022-08-03T02:55:31.670Z,81.04
2022-08-03T02:58:01.477Z,81.19
2022-08-03T03:00:30.004Z,81.32
2022-08-03T03:03:00.539Z,81.26
2022-08-03T03:05:54.804Z,81.32
2022-08-03T03:08:20.854Z,81.56
2022-08-03T03:10:55.601Z,81.15
2022-08-03T03:13:23.109Z,81.37
2022-08-03T03:15:50.893Z,81.84
2022-08-03T03:18:22.048Z,82.02
2022-08-03T03:20:51.220Z,82.02
2022-08-03T03:23:18.274Z,82.28
2022-08-03T03:25:45.529Z,82.25
2022-08-03T03:28:12.506Z,82.49
2022-08-03T03:30:39.107Z,82.55
2022-08-03T03:33:05.780Z,82.30
2022-08-03T03:35:38.960Z,81.80
2022-08-03T03:38:06.518Z,82.30
2022-08-03T03:40:34.885Z,82.44
2022-08-03T03:43:01.490Z,82.44
2022-08-03T03:45:30.943Z,82.84
2022-08-03T03:48:00.134Z,82.61
2022-08-03T03:50:28.318Z,82.62
2022-08-03T03:52:54.848Z,82.73
2022-08-03T03:55:21.372Z,82.13
2022-08-03T03:57:47.847Z,82.46
2022-08-03T04:00:16.699Z,82.59
2022-08-03T04:02:43.550Z,82.40
2022-08-03T04:05:28.619Z,82.44
2022-08-03T04:08:19.374Z,82.34
2022-08-03T04:11:01.944Z,82.44
2022-08-03T04:13:38.714Z,82.74
2022-08-03T04:16:07.829Z,82.63
2022-08-03T04:18:36.682Z,82.34
2022-08-03T04:21:06.143Z,82.57
2022-08-03T04:23:35.806Z,82.49
2022-08-03T04:26:05.262Z,82.62
2022-08-03T04:28:34.117Z,82.62
2022-08-03T04:31:03.538Z,82.74
2022-08-03T04:33:34.898Z,83.04
2022-08-03T04:36:05.095Z,82.96
2022-08-03T04:38:36.627Z,82.96
2022-08-03T04:41:03.684Z,82.86
2022-08-03T04:43:33.358Z,82.57
2022-08-03T04:46:01.009Z,82.33
2022-08-03T04:48:28.448Z,82.32
2022-08-03T04:50:55.156Z,82.39
2022-08-03T04:53:21.794Z,82.35
2022-08-03T04:55:49.585Z,82.28
2022-08-03T04:58:16.115Z,82.43
2022-08-03T05:00:43.239Z,82.05
2022-08-03T05:03:19.499Z,81.67
2022-08-03T05:06:09.629Z,82.23
2022-08-03T05:08:45.996Z,82.01
2022-08-03T05:11:13.258Z,82.05
2022-08-03T05:13:39.741Z,81.84
2022-08-03T05:16:07.632Z,81.71
2022-08-03T05:18:34.284Z,82.06
2022-08-03T05:21:00.835Z,82.02
2022-08-03T05:23:27.774Z,81.71
2022-08-03T05:25:55.774Z,81.63
2022-08-03T05:28:22.418Z,81.54
2022-08-03T05:30:48.956Z,81.67
2022-08-03T05:33:15.528Z,81.58
2022-08-03T05:36:00.873Z,81.48
2022-08-03T05:38:35.054Z,81.40
2022-08-03T05:41:21.060Z,81.50
2022-08-03T05:43:50.368Z,81.35
2022-08-03T05:46:20.972Z,81.29
2022-08-03T05:48:47.556Z,81.11
2022-08-03T05:51:14.053Z,80.91
2022-08-03T05:53:44.267Z,80.70
2022-08-03T05:56:14.040Z,80.39
2022-08-03T05:58:46.775Z,80.06
2022-08-03T06:01:14.092Z,79.69
2022-08-03T06:03:40.866Z,79.48
2022-08-03T06:06:07.667Z,79.40
2022-08-03T06:08:34.544Z,79.07
2022-08-03T06:11:01.045Z,78.81
2022-08-03T06:13:27.554Z,78.33
2022-08-03T06:15:54.075Z,77.91
2022-08-03T06:18:20.601Z,77.81
2022-08-03T06:20:49.454Z,77.75
2022-08-03T06:23:17.743Z,77.20
2022-08-03T06:25:47.454Z,77.33
2022-08-03T06:28:42.664Z,76.67
2022-08-03T06:31:01.221Z,76.90
2022-08-03T06:34:34.505Z,76.84
2022-08-03T06:36:14.563Z,76.46
2022-08-03T06:38:41.085Z,76.31
2022-08-03T06:41:07.497Z,75.94
2022-08-03T06:43:37.606Z,75.34
2022-08-03T06:46:07.901Z,75.58
2022-08-03T06:48:34.280Z,75.35
2022-08-03T06:51:00.692Z,75.16
2022-08-03T06:53:27.068Z,74.92
2022-08-03T06:55:55.053Z,74.89
2022-08-03T06:58:22.236Z,74.72
2022-08-03T07:00:48.638Z,74.97
2022-08-03T07:03:15.163Z,74.73
2022-08-03T07:05:43.440Z,74.82
2022-08-03T07:08:11.011Z,74.40
2022-08-03T07:10:37.969Z,74.72
2022-08-03T07:13:05.404Z,74.22
2022-08-03T07:15:55.111Z,74.61
2022-08-03T07:18:28.295Z,74.24
2022-08-03T07:20:57.176Z,73.86
2022-08-03T07:23:23.604Z,73.71
2022-08-03T07:25:50.990Z,73.15
2022-08-03T07:28:17.886Z,72.85
2022-08-03T07:30:44.377Z,72.89
2022-08-03T07:33:11.078Z,72.27
2022-08-03T07:35:37.836Z,72.63
2022-08-03T07:38:04.297Z,72.37
2022-08-03T07:40:31.744Z,71.60
2022-08-03T07:42:58.873Z,72.02
2022-08-03T07:45:26.716Z,71.31
2022-08-03T07:47:54.122Z,71.10
2022-08-03T07:50:21.276Z,71.23
2022-08-03T07:52:48.157Z,70.99
2022-08-03T07:55:16.050Z,70.16
2022-08-03T07:57:42.597Z,70.13
2022-08-03T08:00:16.447Z,69.23
2022-08-03T08:02:43.677Z,68.82
2022-08-03T08:05:11.107Z,68.59
2022-08-03T08:07:38.571Z,68.40
2022-08-03T08:10:10.103Z,68.16
2022-08-03T08:12:37.654Z,67.89
2022-08-03T08:15:05.568Z,67.56
2022-08-03T08:17:40.750Z,67.02
2022-08-03T08:20:08.060Z,66.88
2022-08-03T08:22:35.696Z,66.60
2022-08-03T08:25:04.480Z,65.74
2022-08-03T08:28:22.276Z,65.04
2022-08-03T08:30:22.549Z,64.53
2022-08-03T08:32:49.976Z,64.42
2022-08-03T08:35:18.070Z,64.10
2022-08-03T08:37:51.129Z,63.45
2022-08-03T08:40:20.995Z,62.58
2022-08-03T08:42:57.844Z,62.20
2022-08-03T08:45:25.198Z,62.10
2022-08-03T08:47:53.926Z,61.59
2022-08-03T08:50:27.963Z,61.25
2022-08-03T08:52:55.961Z,60.79
2022-08-03T08:55:23.769Z,60.82
2022-08-03T08:57:59.323Z,59.92
2022-08-03T09:00:26.063Z,58.77
2022-08-03T09:02:53.146Z,58.81
2022-08-03T09:05:31.467Z,59.06
2022-08-03T09:08:07.825Z,58.90
2022-08-03T09:10:34.833Z,57.88
2022-08-03T09:13:02.287Z,58.52
2022-08-03T09:15:31.744Z,57.93
2022-08-03T09:18:00.769Z,57.45
2022-08-03T09:20:29.697Z,57.80
2022-08-03T09:24:00.578Z,57.13
2022-08-03T09:26:00.010Z,57.14
2022-08-03T09:28:59.736Z,56.54
2022-08-03T09:31:20.757Z,56.52
2022-08-03T09:33:48.786Z,56.73
2022-08-03T09:36:38.214Z,56.34
2022-08-03T09:39:07.044Z,55.37
2022-08-03T09:41:33.974Z,55.20
2022-08-03T09:44:00.551Z,54.91
2022-08-03T09:46:31.717Z,55.41
2022-08-03T09:49:12.645Z,55.27
2022-08-03T09:52:31.737Z,54.24
2022-08-03T09:54:31.577Z,54.00
2022-08-03T09:56:58.722Z,53.99
2022-08-03T09:59:30.426Z,53.39
2022-08-03T10:01:58.044Z,53.67
2022-08-03T10:04:24.696Z,53.31
2022-08-03T10:07:11.123Z,53.06
2022-08-03T10:09:38.419Z,52.87
2022-08-03T10:12:13.414Z,53.17
2022-08-03T10:14:43.849Z,51.70
2022-08-03T10:17:10.412Z,51.12
2022-08-03T10:19:36.977Z,50.51
2022-08-03T10:22:10.538Z,50.90
2022-08-03T10:24:39.345Z,50.45
2022-08-03T10:27:08.002Z,50.23
2022-08-03T10:29:40.152Z,48.31
2022-08-03T10:32:19.082Z,48.23
2022-08-03T10:34:47.143Z,49.05
2022-08-03T10:37:15.925Z,48.69
2022-08-03T10:39:53.409Z,46.58
2022-08-03T10:42:26.423Z,46.86
2022-08-03T10:45:12.852Z,47.78
2022-08-03T10:47:40.880Z,46.06
2022-08-03T10:50:08.807Z,46.02
2022-08-03T10:52:41.275Z,44.04
2022-08-03T10:56:01.107Z,45.14
2022-08-03T10:58:37.200Z,45.58
2022-08-03T11:01:09.093Z,44.36
2022-08-03T11:03:55.497Z,44.32
2022-08-03T11:06:24.791Z,42.38
2022-08-03T11:09:11.130Z,43.12
2022-08-03T11:11:39.850Z,43.35
2022-08-03T11:14:09.459Z,42.88
2022-08-03T11:16:39.175Z,43.21
2022-08-03T11:19:08.383Z,42.70
2022-08-03T11:21:52.960Z,42.16
2022-08-03T11:24:40.690Z,41.38
2022-08-03T11:27:29.930Z,40.86
2022-08-03T11:30:05.671Z,40.39
2022-08-03T11:32:38.443Z,39.92
2022-08-03T11:35:09.075Z,40.81
2022-08-03T11:37:36.056Z,39.41
2022-08-03T11:40:03.521Z,39.37
2022-08-03T11:42:33.267Z,38.78
2022-08-03T11:45:00.688Z,39.75
2022-08-03T11:47:29.022Z,38.41
2022-08-03T11:50:01.830Z,37.43
2022-08-03T11:52:34.989Z,37.29
2022-08-03T11:55:01.990Z,37.13
2022-08-03T11:59:16.434Z,36.05
2022-08-03T12:00:25.987Z,35.95
2022-08-03T12:03:00.529Z,37.43
2022-08-03T12:05:38.757Z,36.59
2022-08-03T12:08:07.191Z,35.37
2022-08-03T12:10:34.909Z,35.60
2022-08-03T12:13:05.890Z,35.48
2022-08-03T12:15:54.984Z,34.43
2022-08-03T12:18:22.968Z,33.63
2022-08-03T12:20:52.777Z,33.04
2022-08-03T12:23:19.830Z,33.96
2022-08-03T12:25:47.511Z,33.90
2022-08-03T12:28:28.267Z,33.89
2022-08-03T12:31:07.387Z,34.97
2022-08-03T12:33:56.397Z,34.62
2022-08-03T12:36:22.879Z,31.48
2022-08-03T12:39:08.318Z,31.95
2022-08-03T12:41:37.292Z,30.86
2022-08-03T12:44:05.924Z,30.83
2022-08-03T12:46:47.192Z,31.88
2022-08-03T12:49:15.831Z,31.87
2022-08-03T12:51:42.233Z,32.10
2022-08-03T12:54:09.773Z,33.11
2022-08-03T12:56:59.421Z,32.68
2022-08-03T12:59:53.483Z,32.88
2022-08-03T13:02:23.770Z,32.79
2022-08-03T13:04:51.533Z,33.82
2022-08-03T13:07:19.558Z,32.56
2022-08-03T13:09:53.298Z,33.45
2022-08-03T13:12:22.449Z,32.58
2022-08-03T13:14:54.969Z,32.64
2022-08-03T13:17:21.897Z,33.12
2022-08-03T13:19:49.587Z,33.52
2022-08-03T13:22:20.599Z,32.92
2022-08-03T13:24:49.664Z,32.91
2022-08-03T13:28:02.367Z,34.27
2022-08-03T13:30:04.563Z,35.39
2022-08-03T13:32:31.099Z,35.38
2022-08-03T13:35:02.447Z,35.46
2022-08-03T13:37:32.139Z,35.51
2022-08-03T13:40:02.386Z,35.17
2022-08-03T13:42:31.037Z,34.05
2022-08-03T13:44:57.636Z,33.94
2022-08-03T13:47:24.266Z,34.13
2022-08-03T13:49:59.815Z,34.81
2022-08-03T13:52:27.606Z,33.42
2022-08-03T13:54:54.115Z,33.83
2022-08-03T13:58:11.928Z,32.16
2022-08-03T14:00:08.002Z,33.45
2022-08-03T14:02:34.437Z,33.60
2022-08-03T14:05:00.968Z,33.73
2022-08-03T14:07:27.387Z,33.09
2022-08-03T14:09:53.809Z,33.33
2022-08-03T14:12:20.276Z,33.14
2022-08-03T14:14:46.794Z,32.21
2022-08-03T14:17:13.246Z,32.90
2022-08-03T14:19:52.605Z,32.71
2022-08-03T14:22:20.316Z,32.30
2022-08-03T14:24:46.827Z,32.22
2022-08-03T14:27:13.285Z,31.77
2022-08-03T14:29:39.691Z,31.91
2022-08-03T14:32:09.558Z,31.79
2022-08-03T14:34:38.702Z,34.21
2022-08-03T14:37:05.207Z,33.73
2022-08-03T14:39:58.205Z,33.76
2022-08-03T14:42:18.142Z,32.65
2022-08-03T14:44:44.636Z,32.23
2022-08-03T14:47:12.145Z,32.53
2022-08-03T14:50:37.372Z,32.31
2022-08-03T14:52:24.970Z,31.61
2022-08-03T14:54:51.553Z,31.27
2022-08-03T14:57:18.227Z,31.60
2022-08-03T14:59:56.851Z,30.92
2022-08-03T15:02:25.267Z,31.72
2022-08-03T15:04:52.665Z,31.41
2022-08-03T15:07:20.559Z,30.72
2022-08-03T15:09:47.501Z,31.40
2022-08-03T15:12:13.934Z,30.95
2022-08-03T15:14:40.423Z,31.90
2022-08-03T15:17:07.324Z,31.34
2022-08-03T15:20:01.077Z,31.13
2022-08-03T15:22:25.401Z,31.06
2022-08-03T15:26:28.638Z,30.10
2022-08-03T15:28:04.288Z,32.12
2022-08-03T15:30:33.809Z,32.72
2022-08-03T15:33:00.260Z,31.69
2022-08-03T15:35:29.335Z,31.10
2022-08-03T15:37:55.881Z,30.77
2022-08-03T15:40:22.348Z,31.28
2022-08-03T15:42:48.774Z,31.45
2022-08-03T15:45:17.860Z,30.49
2022-08-03T15:47:47.082Z,29.81
2022-08-03T15:50:13.634Z,29.78
2022-08-03T15:52:40.104Z,29.62
2022-08-03T15:55:07.530Z,29.73
2022-08-03T15:57:34.011Z,30.32
2022-08-03T16:00:20.510Z,30.26
2022-08-03T16:03:00.038Z,31.47
2022-08-03T16:05:26.688Z,30.66
2022-08-03T16:08:03.475Z,30.56
2022-08-03T16:10:33.920Z,28.81
2022-08-03T16:13:00.519Z,28.89
2022-08-03T16:15:28.438Z,29.07
2022-08-03T16:17:55.257Z,30.03
2022-08-03T16:20:31.515Z,30.65
2022-08-03T16:23:10.888Z,30.55
2022-08-03T16:25:41.038Z,30.23
2022-08-03T16:28:13.486Z,31.11
2022-08-03T16:30:42.342Z,29.89
2022-08-03T16:33:09.069Z,29.73
2022-08-03T16:35:38.569Z,29.69
2022-08-03T16:38:09.612Z,30.18
2022-08-03T16:40:39.398Z,28.97
2022-08-03T16:43:18.445Z,29.65
2022-08-03T16:45:46.876Z,27.91
2022-08-03T16:48:14.034Z,27.80
2022-08-03T16:50:41.152Z,28.22
2022-08-03T16:53:09.603Z,28.52
2022-08-03T16:55:43.574Z,28.04
2022-08-03T16:58:34.494Z,27.52
2022-08-03T17:01:21.945Z,27.39
2022-08-03T17:04:01.458Z,27.83
2022-08-03T17:06:35.433Z,26.75
2022-08-03T17:09:08.739Z,25.99
2022-08-03T17:11:43.861Z,26.09
2022-08-03T17:14:13.682Z,25.73
2022-08-03T17:16:51.908Z,26.37
2022-08-03T17:19:21.306Z,27.00
2022-08-03T17:21:57.016Z,27.92
2022-08-03T17:24:51.833Z,28.29
2022-08-03T17:28:50.554Z,28.61
2022-08-03T17:30:13.415Z,28.15
2022-08-03T17:32:52.599Z,28.72
2022-08-03T17:35:34.222Z,28.12
2022-08-03T17:38:06.646Z,28.72
2022-08-03T17:44:08.174Z,28.16
2022-08-03T17:46:14.133Z,27.87
2022-08-03T17:48:46.233Z,27.67
2022-08-03T17:51:20.941Z,28.24
2022-08-03T17:54:20.463Z,29.27
2022-08-03T17:57:21.982Z,31.03
2022-08-03T17:59:58.573Z,32.03
2022-08-03T18:03:06.751Z,33.01
2022-08-03T18:06:10.642Z,34.09
2022-08-03T18:08:46.519Z,33.83
2022-08-03T18:11:16.928Z,35.22
2022-08-03T18:14:30.245Z,35.69
2022-08-03T18:17:27.378Z,36.17
2022-08-03T18:20:32.871Z,36.95
2022-08-03T18:23:05.593Z,38.01
2022-08-03T18:25:45.412Z,38.03
2022-08-03T18:28:16.469Z,38.82
2022-08-03T18:30:53.687Z,39.13
2022-08-03T18:34:19.273Z,39.49
2022-08-03T18:36:17.946Z,39.95
2022-08-03T18:38:54.373Z,40.21
2022-08-03T18:41:32.716Z,40.56
2022-08-03T18:44:08.748Z,41.31
2022-08-03T18:47:25.249Z,41.26
2022-08-03T18:50:08.832Z,41.69
2022-08-03T18:53:21.189Z,41.84
2022-08-03T18:56:05.972Z,42.51
2022-08-03T18:58:56.593Z,42.64
2022-08-03T19:01:59.761Z,42.93
2022-08-03T19:04:35.616Z,43.06
2022-08-03T19:07:07.879Z,43.76
2022-08-03T19:09:48.346Z,44.19
2022-08-03T19:12:30.510Z,45.09
2022-08-03T19:15:10.431Z,45.55
2022-08-03T19:17:52.900Z,45.94
2022-08-03T19:20:28.198Z,47.37
2022-08-03T19:23:00.070Z,48.42
2022-08-03T19:25:41.501Z,47.50
2022-08-03T19:28:08.986Z,49.03
2022-08-03T19:30:38.833Z,48.94
2022-08-03T19:33:11.886Z,48.67
2022-08-03T19:35:57.330Z,48.39
2022-08-03T19:38:29.293Z,48.83
2022-08-03T19:41:02.661Z,48.59
2022-08-03T19:43:52.562Z,49.53
2022-08-03T19:46:30.583Z,49.44
2022-08-03T19:49:04.647Z,49.93
2022-08-03T19:52:00.839Z,49.88
2022-08-03T19:54:29.307Z,50.26
2022-08-03T19:57:01.851Z,50.49
2022-08-03T19:59:29.615Z,50.60
2022-08-03T20:01:56.137Z,52.26
2022-08-03T20:04:22.689Z,52.97
2022-08-03T20:06:52.227Z,53.12
2022-08-03T20:09:20.480Z,53.74
2022-08-03T20:11:47.868Z,54.37
2022-08-03T20:14:20.551Z,55.28
2022-08-03T20:16:54.262Z,56.06
2022-08-03T20:19:24.752Z,56.48
2022-08-03T20:22:01.668Z,57.50
2022-08-03T20:24:34.428Z,57.24
2022-08-03T20:27:10.795Z,57.65
2022-08-03T20:30:05.342Z,57.23
2022-08-03T20:32:28.468Z,57.53
2022-08-03T20:34:58.642Z,58.24
2022-08-03T20:37:27.760Z,58.46
2022-08-03T20:39:57.143Z,58.17
2022-08-03T20:42:23.819Z,58.45
2022-08-03T20:45:04.482Z,58.86
2022-08-03T20:47:35.750Z,58.75
2022-08-03T20:50:04.042Z,59.17
2022-08-03T20:52:35.059Z,59.96
2022-08-03T20:55:20.489Z,59.79
2022-08-03T20:58:06.782Z,60.25
2022-08-03T21:00:33.360Z,61.77
2022-08-03T21:02:59.841Z,61.32
2022-08-03T21:05:48.045Z,61.32
2022-08-03T21:08:15.860Z,62.58
2022-08-03T21:10:45.507Z,63.44
2022-08-03T21:12:54.576Z,28.64
2022-08-03T21:13:28.009Z,62.53
2022-08-03T21:16:02.668Z,63.33
2022-08-03T21:18:47.268Z,63.52
2022-08-03T21:21:17.671Z,63.88
2022-08-03T21:23:49.018Z,64.01
2022-08-03T21:26:20.690Z,64.58
2022-08-03T21:28:49.451Z,63.78
2022-08-03T21:31:24.463Z,64.54
2022-08-03T21:33:53.215Z,63.69
2022-08-03T21:36:19.976Z,64.82
2022-08-03T21:38:47.505Z,64.73
2022-08-03T21:41:23.381Z,65.65
2022-08-03T21:43:49.896Z,65.35
2022-08-03T21:46:20.038Z,65.24
2022-08-03T21:48:47.889Z,64.14
2022-08-03T21:51:18.510Z,65.81
2022-08-03T21:54:02.394Z,65.92
2022-08-03T21:56:36.841Z,66.60
2022-08-03T21:59:06.546Z,66.50
2022-08-03T22:01:35.697Z,66.16
2022-08-03T22:04:09.315Z,66.92
2022-08-03T22:06:42.425Z,66.84
2022-08-03T22:09:09.253Z,66.99
2022-08-03T22:11:37.519Z,66.73
2022-08-03T22:14:04.330Z,67.26
2022-08-03T22:16:31.401Z,67.87
2022-08-03T22:18:57.931Z,68.37
2022-08-03T22:21:36.386Z,68.51
2022-08-03T22:24:05.327Z,68.29
2022-08-03T22:26:34.927Z,68.29
2022-08-03T22:29:06.028Z,68.41
2022-08-03T22:31:58.484Z,68.43
2022-08-03T22:34:26.751Z,68.54
2022-08-03T22:36:56.603Z,69.41
2022-08-03T22:39:28.957Z,69.60
2022-08-03T22:41:59.371Z,69.43
2022-08-03T22:44:26.947Z,69.17
2022-08-03T22:46:55.639Z,69.70
2022-08-03T22:49:22.617Z,69.97
2022-08-03T22:51:51.807Z,70.30
2022-08-03T22:54:18.858Z,70.76
2022-08-03T22:56:49.711Z,70.18
2022-08-03T22:59:39.095Z,70.42
2022-08-03T23:02:20.339Z,69.78
2022-08-03T23:04:54.913Z,70.10
2022-08-03T23:07:30.184Z,70.13
2022-08-03T23:09:58.192Z,71.05
2022-08-03T23:12:25.380Z,71.35
2022-08-03T23:14:55.677Z,71.61
2022-08-03T23:17:23.687Z,70.68
2022-08-03T23:19:52.668Z,71.94
2022-08-03T23:22:30.203Z,71.83
2022-08-03T23:24:59.057Z,72.01
2022-08-03T23:27:27.488Z,72.45
2022-08-03T23:29:54.366Z,72.54
2022-08-03T23:32:21.239Z,72.24
2022-08-03T23:35:07.805Z,72.50
2022-08-03T23:37:34.917Z,71.96
2022-08-03T23:40:24.659Z,72.48
2022-08-03T23:42:51.776Z,72.07
2022-08-03T23:45:19.932Z,72.39
2022-08-03T23:47:48.366Z,72.82
2022-08-03T23:50:15.491Z,72.95
2022-08-03T23:53:11.548Z,73.17
2022-08-03T23:56:03.921Z,73.12
2022-08-03T23:58:33.238Z,73.65
